Time;durP1;ratioP1;P1;durP2;ratioP2;P2;SDS_P1;SDS_P2;PMS_P1;PMS_P2;Temp;Humidity;BMP_temperature;BMP_pressure;BME280_temperature;BME280_humidity;BME280_pressure;Samples;Min_cycle;Max_cycle;Signal;HPM_P1;HPM_P2
2021/05/03 00:00:18;;;;;;;2.97;2.60;;;;;;;4.75;66.56;100227.69;10543537;28;20048;-73
2021/05/03 00:05:29;;;;;;;3.58;2.95;;;;;;;4.71;66.73;100227.72;10542435;28;20036;-73
2021/05/03 00:10:30;;;;;;;3.42;2.92;;;;;;;4.69;66.79;100227.75;10524965;28;20044;-72
2021/05/03 00:15:31;;;;;;;3.30;2.97;;;;;;;4.75;67.00;100229.44;10523669;28;20105;-72
2021/05/03 00:20:32;;;;;;;4.72;2.83;;;;;;;4.75;67.21;100239.84;10542516;28;20048;-72
2021/05/03 00:25:33;;;;;;;3.25;2.83;;;;;;;4.80;67.09;100244.16;10545652;28;20060;-72
2021/05/03 00:30:35;;;;;;;3.15;2.85;;;;;;;4.68;67.73;100238.16;10532467;28;20044;-72
2021/05/03 00:35:36;;;;;;;3.33;2.97;;;;;;;4.84;67.78;100238.94;10532319;28;20082;-72
2021/05/03 00:40:41;;;;;;;4.07;3.38;;;;;;;4.75;67.67;100238.13;10531435;28;20051;-72
2021/05/03 00:45:42;;;;;;;3.90;3.60;;;;;;;4.55;68.17;100239.94;10549081;28;20070;-73
2021/05/03 00:50:44;;;;;;;3.75;3.45;;;;;;;4.39;68.97;100262.56;10530862;28;20094;-71
2021/05/03 00:55:46;;;;;;;8.23;3.53;;;;;;;4.43;68.53;100259.09;10531500;28;20418;-73
2021/05/03 01:00:47;;;;;;;5.60;4.00;;;;;;;4.37;68.84;100256.47;10548252;28;20044;-72
2021/05/03 01:05:49;;;;;;;3.95;3.25;;;;;;;4.34;68.53;100260.81;10547987;28;20043;-71
2021/05/03 01:10:50;;;;;;;3.20;2.90;;;;;;;4.59;67.78;100257.28;10549022;28;20040;-72
2021/05/03 01:15:51;;;;;;;4.10;3.65;;;;;;;4.38;68.92;100263.41;10550330;28;20040;-72
2021/05/03 01:20:54;;;;;;;4.70;3.13;;;;;;;4.52;67.83;100264.25;10547686;28;20036;-72
2021/05/03 01:25:56;;;;;;;3.20;2.65;;;;;;;4.69;67.11;100259.00;10547267;28;20040;-73
2021/05/03 01:30:58;;;;;;;3.92;2.47;;;;;;;4.86;66.05;100261.50;10547251;28;20433;-72
2021/05/03 01:35:59;;;;;;;3.20;2.47;;;;;;;5.03;65.19;100256.19;10546468;28;20079;-71
2021/05/03 01:41:00;;;;;;;3.60;2.42;;;;;;;5.15;65.00;100260.47;10528608;28;20064;-73
2021/05/03 01:46:03;;;;;;;3.08;2.55;;;;;;;5.11;65.03;100258.78;10547142;28;20108;-71
2021/05/03 01:51:05;;;;;;;2.88;2.67;;;;;;;5.22;64.42;100267.38;10530158;28;20044;-72
2021/05/03 01:56:08;;;;;;;2.92;2.50;;;;;;;5.23;64.34;100272.59;10546694;28;20085;-72
2021/05/03 02:01:09;;;;;;;4.25;2.47;;;;;;;5.14;64.82;100269.19;10546387;28;20032;-72
2021/05/03 02:06:12;;;;;;;3.70;2.67;;;;;;;5.29;64.37;100271.69;10546135;28;20123;-73
2021/05/03 02:11:16;;;;;;;3.65;2.50;;;;;;;5.18;65.19;100279.56;10546567;28;20040;-72
2021/05/03 02:16:17;;;;;;;4.80;3.35;;;;;;;5.23;65.19;100276.94;10545591;28;20070;-73
2021/05/03 02:21:18;;;;;;;4.72;2.88;;;;;;;5.15;66.15;100276.13;10527872;28;20059;-71
2021/05/03 02:26:20;;;;;;;4.47;3.75;;;;;;;5.20;65.33;100277.81;10546232;28;20039;-73
2021/05/03 02:31:21;;;;;;;3.33;3.03;;;;;;;5.21;65.41;100276.06;10546407;28;20072;-73
2021/05/03 02:36:22;;;;;;;4.25;3.28;;;;;;;5.07;65.53;100284.84;10546275;28;20044;-72
2021/05/03 02:41:23;;;;;;;4.57;3.10;;;;;;;5.16;65.06;100280.44;10528169;28;20048;-72
2021/05/03 02:46:27;;;;;;;4.28;3.20;;;;;;;5.11;65.46;100287.44;10527403;28;20449;-71
2021/05/03 02:51:29;;;;;;;3.58;3.28;;;;;;;5.07;65.69;100283.97;10526688;28;20159;-73
2021/05/03 02:56:31;;;;;;;3.33;3.08;;;;;;;5.16;65.35;100293.47;10544723;28;20035;-72
2021/05/03 03:01:32;;;;;;;3.85;2.58;;;;;;;5.15;65.12;100294.34;10544003;28;20565;-72
2021/05/03 03:06:33;;;;;;;3.45;2.33;;;;;;;5.23;64.28;100297.78;10526389;28;20032;-72
2021/05/03 03:11:35;;;;;;;4.43;2.50;;;;;;;5.20;64.41;100296.06;10525363;28;20071;-71
2021/05/03 03:16:36;;;;;;;3.53;2.47;;;;;;;5.09;64.99;100308.28;10543086;28;20440;-72
2021/05/03 03:21:39;;;;;;;3.28;3.03;;;;;;;5.03;65.20;100316.97;10524074;28;20052;-72
2021/05/03 03:26:40;;;;;;;6.47;3.40;;;;;;;5.14;65.29;100313.47;10524678;28;20150;-73
2021/05/03 03:31:41;;;;;;;5.20;3.25;;;;;;;4.92;65.80;100329.22;10542563;28;20036;-72
2021/05/03 03:36:43;;;;;;;3.95;3.50;;;;;;;4.84;66.07;100330.97;10542761;28;20158;-72
2021/05/03 03:41:44;;;;;;;3.83;3.50;;;;;;;4.87;65.66;100332.69;10524900;28;20052;-72
2021/05/03 03:46:45;;;;;;;4.82;3.50;;;;;;;4.85;65.38;100348.31;10524147;28;20044;-72
2021/05/03 03:51:46;;;;;;;4.03;3.70;;;;;;;4.69;65.91;100344.91;10524402;28;20055;-72
2021/05/03 03:56:48;;;;;;;5.15;4.43;;;;;;;4.66;66.56;100350.13;10542108;28;20165;-72
2021/05/03 04:01:50;;;;;;;5.60;4.07;;;;;;;4.80;65.87;100355.28;10543225;28;20097;-72
2021/05/03 04:07:19;;;;;;;3.83;3.15;;;;;;;4.93;65.24;100364.78;10542423;28;20044;-72
2021/05/03 04:28:11;;;;;;;3.50;3.20;;;;;;;4.97;64.43;100368.25;10541894;28;20082;-72
2021/05/03 04:33:13;;;;;;;4.47;3.58;;;;;;;5.02;64.36;100362.16;10524292;28;20111;-72
2021/05/03 04:38:15;;;;;;;5.07;3.70;;;;;;;5.04;64.30;100376.03;10542809;28;20089;-72
2021/05/03 04:43:16;;;;;;;4.32;3.33;;;;;;;5.03;64.30;100381.25;10541861;28;20040;-72
2021/05/03 04:48:17;;;;;;;3.88;3.15;;;;;;;5.02;64.58;100385.59;10524260;28;20044;-72
2021/05/03 04:53:19;;;;;;;4.13;3.80;;;;;;;5.28;64.54;100382.91;10542800;28;20044;-72
2021/05/03 04:58:20;;;;;;;5.95;3.00;;;;;;;5.48;63.14;100385.38;10542219;28;20068;-72
2021/05/03 05:03:22;;;;;;;3.40;3.10;;;;;;;5.66;62.66;100388.75;10522144;28;20144;-72
2021/05/03 05:08:23;;;;;;;3.67;2.95;;;;;;;5.77;61.87;100386.97;10540157;28;20405;-72
2021/05/03 05:13:25;;;;;;;3.60;2.60;;;;;;;5.98;61.49;100396.44;10529271;28;20036;-71
2021/05/03 05:18:26;;;;;;;4.57;2.70;;;;;;;6.03;61.44;100400.72;10529951;28;20051;-71
2021/05/03 05:23:27;;;;;;;3.40;3.00;;;;;;;6.27;61.02;100401.41;10547493;28;20078;-72
2021/05/03 05:28:29;;;;;;;3.28;2.50;;;;;;;6.20;60.33;100402.34;10547873;28;20044;-71
2021/05/03 05:33:30;;;;;;;4.95;2.88;;;;;;;6.18;60.69;100411.94;10631628;22;20054;-70
2021/05/03 05:38:31;;;;;;;2.90;2.38;;;;;;;6.00;60.72;100416.41;10632762;27;20047;-71
2021/05/03 05:43:33;;;;;;;3.30;2.35;;;;;;;5.95;61.74;100423.41;10633114;27;20107;-71
2021/05/03 05:48:37;;;;;;;2.90;2.63;;;;;;;5.69;62.41;100422.66;10613261;27;20094;-71
2021/05/03 05:53:39;;;;;;;4.38;2.72;;;;;;;5.82;61.79;100433.00;10630990;27;20039;-72
2021/05/03 05:58:40;;;;;;;3.72;2.95;;;;;;;5.91;62.01;100434.69;10612533;27;20138;-72
2021/05/03 06:03:41;;;;;;;3.80;3.42;;;;;;;5.80;62.51;100444.34;10630945;27;20042;-72
2021/05/03 06:08:43;;;;;;;5.45;3.60;;;;;;;5.82;62.60;100435.63;10611419;27;20088;-72
2021/05/03 06:13:44;;;;;;;4.47;3.20;;;;;;;6.18;61.78;100438.03;10630164;27;20123;-71
2021/05/03 06:18:46;;;;;;;3.70;3.35;;;;;;;6.15;62.05;100451.97;10610704;27;20412;-71
2021/05/03 06:23:47;;;;;;;5.20;3.88;;;;;;;6.19;62.68;100450.19;10629558;27;20047;-71
2021/05/03 06:28:48;;;;;;;7.30;3.35;;;;;;;6.28;60.90;100447.50;10630819;27;20396;-72
2021/05/03 06:33:49;;;;;;;5.53;3.85;;;;;;;6.28;61.58;100453.59;10610283;27;20522;-71
2021/05/03 06:38:51;;;;;;;4.18;3.47;;;;;;;6.37;61.50;100459.63;10628631;27;20042;-71
2021/05/03 06:43:52;;;;;;;4.80;3.45;;;;;;;6.46;61.81;100456.94;10610363;27;20039;-71
2021/05/03 06:48:53;;;;;;;4.28;3.88;;;;;;;6.80;60.52;100457.53;10610478;27;20114;-71
2021/05/03 06:53:55;;;;;;;5.65;3.50;;;;;;;6.90;59.54;100466.13;10628940;27;20144;-71
2021/05/03 06:58:56;;;;;;;3.40;3.10;;;;;;;7.06;58.98;100450.28;10610701;27;20047;-70
2021/05/03 07:03:57;;;;;;;3.92;3.03;;;;;;;7.29;58.11;100457.00;10628365;27;20062;-70
2021/05/03 07:09:00;;;;;;;2.85;2.00;;;;;;;7.61;55.21;100451.38;10627945;27;20108;-71
2021/05/03 07:14:01;;;;;;;2.25;1.90;;;;;;;7.76;54.08;100459.03;10609593;27;20035;-72
2021/05/03 07:19:03;;;;;;;2.08;1.30;;;;;;;8.06;52.61;100465.59;10627639;27;20118;-70
2021/05/03 07:24:10;;;;;;;2.45;1.38;;;;;;;7.50;53.54;100464.59;10627150;27;20122;-72
2021/05/03 07:29:11;;;;;;;3.03;1.90;;;;;;;7.80;53.20;100470.31;10627677;27;20039;-71
2021/05/03 07:34:13;;;;;;;2.00;1.50;;;;;;;7.92;52.91;100461.41;10625538;27;20052;-71
2021/05/03 07:39:14;;;;;;;3.63;1.73;;;;;;;7.99;54.27;100463.06;10627658;27;20041;-70
2021/05/03 07:44:16;;;;;;;2.47;2.08;;;;;;;8.11;53.01;100455.06;10637305;27;20135;-71
2021/05/03 07:49:17;;;;;;;3.20;1.80;;;;;;;8.32;51.64;100459.97;10628099;27;20039;-71
2021/05/03 07:54:19;;;;;;;3.80;1.60;;;;;;;8.64;51.61;100455.13;10627354;27;20126;-71
2021/05/03 07:59:20;;;;;;;2.72;1.70;;;;;;;9.23;51.77;100450.53;10626426;27;20097;-71
2021/05/03 08:04:23;;;;;;;2.47;1.98;;;;;;;9.17;51.37;100469.00;10622608;27;20031;-70
2021/05/03 08:09:25;;;;;;;3.70;1.60;;;;;;;9.00;50.50;100459.69;10633974;27;20096;-71
2021/05/03 08:14:26;;;;;;;3.75;2.30;;;;;;;9.02;52.02;100478.00;10641131;27;20492;-70
2021/05/03 08:19:29;;;;;;;1.83;1.50;;;;;;;8.48;51.75;100478.94;10630842;27;20047;-71
2021/05/03 08:24:32;;;;;;;1.52;1.35;;;;;;;8.59;52.03;100484.03;10646587;27;20055;-70
2021/05/03 08:29:34;;;;;;;2.08;1.70;;;;;;;8.67;49.39;100484.72;10598685;27;20047;-70
2021/05/03 08:34:35;;;;;;;1.65;1.30;;;;;;;8.52;51.09;100485.84;10649864;27;20046;-70
2021/05/03 08:39:37;;;;;;;2.30;1.67;;;;;;;8.40;51.64;100496.53;10638185;27;20430;-73
2021/05/03 08:44:38;;;;;;;2.60;1.80;;;;;;;8.93;50.58;100502.63;10628503;27;20488;-71
2021/05/03 08:49:56;;;;;;;3.75;2.30;;;;;;;9.52;50.38;100491.94;10661751;27;20423;-72
2021/05/03 08:54:58;;;;;;;2.65;1.60;;;;;;;9.89;49.60;100486.78;10657309;27;20046;-71
2021/05/03 09:00:00;;;;;;;1.73;1.38;;;;;;;9.54;48.57;100482.25;10633986;27;20082;-70
2021/05/03 09:05:01;;;;;;;1.80;1.60;;;;;;;8.94;49.01;100501.78;10646529;27;20454;-72
2021/05/03 09:10:12;;;;;;;1.95;1.70;;;;;;;9.34;48.38;100501.00;10645725;27;20039;-71
2021/05/03 09:15:22;;;;;;;2.75;1.23;;;;;;;9.27;46.53;100487.16;10630581;27;20096;-70
2021/05/03 09:20:26;;;;;;;1.52;1.40;;;;;;;9.48;47.50;100492.88;10633727;27;20035;-71
2021/05/03 09:25:34;;;;;;;1.38;1.13;;;;;;;9.84;46.27;100467.63;10631141;27;20035;-69
2021/05/03 09:30:41;;;;;;;2.05;1.00;;;;;;;10.48;45.23;100475.81;10614488;27;20524;-70
2021/05/03 09:35:43;;;;;;;2.37;1.30;;;;;;;10.27;46.19;100461.41;10633883;27;20039;-70
2021/05/03 09:40:44;;;;;;;2.13;1.30;;;;;;;9.55;45.15;100474.34;10631620;27;20473;-70
2021/05/03 09:45:45;;;;;;;1.35;1.15;;;;;;;9.55;47.66;100473.47;10616538;27;20054;-70
2021/05/03 09:50:47;;;;;;;2.47;1.20;;;;;;;9.76;45.20;100459.06;10633141;27;20054;-71
2021/05/03 09:55:53;;;;;;;1.83;1.10;;;;;;;9.79;45.53;100459.00;10632456;27;20078;-70
2021/05/03 10:00:56;;;;;;;3.03;1.10;;;;;;;9.92;44.59;100452.56;10632579;27;20092;-71
2021/05/03 10:05:58;;;;;;;1.73;1.02;;;;;;;10.14;45.65;100466.09;10648192;27;20070;-68
2021/05/03 10:11:07;;;;;;;2.80;1.10;;;;;;;9.81;45.51;100462.44;10622124;27;20452;-70
2021/05/03 10:16:10;;;;;;;1.52;1.00;;;;;;;10.23;44.06;100447.47;10623925;27;20063;-71
2021/05/03 10:21:13;;;;;;;1.48;0.70;;;;;;;10.37;44.62;100436.66;10608049;27;20043;-71
2021/05/03 10:26:15;;;;;;;1.00;0.82;;;;;;;9.81;45.98;100463.28;10588457;27;20035;-70
2021/05/03 10:31:17;;;;;;;1.63;0.80;;;;;;;9.74;45.19;100459.09;10628396;27;20050;-70
2021/05/03 10:36:38;;;;;;;1.52;0.70;;;;;;;10.39;45.10;100445.34;10673065;27;20042;-70
2021/05/03 10:41:39;;;;;;;1.30;0.75;;;;;;;10.43;44.91;100436.50;10653495;27;20046;-70
2021/05/03 10:52:06;;;;;;;2.53;0.80;;;;;;;10.86;41.95;100432.78;10654981;27;20034;-70
2021/05/03 10:57:29;;;;;;;0.88;0.70;;;;;;;11.28;41.36;100427.22;10653728;27;20053;-71
2021/05/03 11:02:40;;;;;;;1.30;0.85;;;;;;;12.04;40.48;100424.09;10645269;27;20050;-70
2021/05/03 11:08:04;;;;;;;0.90;0.70;;;;;;;12.10;42.13;100422.16;10659191;27;20035;-70
2021/05/03 11:13:36;;;;;;;1.10;0.60;;;;;;;12.61;40.60;100421.34;10608582;27;20483;-70
2021/05/03 11:18:41;;;;;;;1.42;0.65;;;;;;;13.28;40.39;100411.97;10577801;28;20046;-70
2021/05/03 11:23:42;;;;;;;0.95;0.60;;;;;;;13.98;39.58;100416.34;10573389;27;20034;-71
2021/05/03 11:28:46;;;;;;;1.77;0.82;;;;;;;12.95;39.87;100417.53;10649050;27;20042;-70
2021/05/03 11:34:01;;;;;;;0.80;0.70;;;;;;;13.13;39.25;100410.75;10571249;22;20066;-71
2021/05/03 11:49:16;;;;;;;1.00;0.75;;;;;;;12.61;40.22;100412.56;10543114;28;20409;-73
2021/05/03 11:54:29;;;;;;;0.68;0.60;;;;;;;12.52;40.84;100407.59;10541588;28;20075;-73
2021/05/03 11:59:31;;;;;;;2.38;0.80;;;;;;;12.18;41.51;100413.16;10539624;28;20554;-74
2021/05/03 12:04:48;;;;;;;1.40;0.70;;;;;;;11.25;42.95;100417.69;10525027;28;20036;-72
2021/05/03 12:10:00;;;;;;;3.90;1.20;;;;;;;11.66;43.65;100407.69;10525382;28;20051;-72
2021/05/03 12:15:16;;;;;;;1.40;0.90;;;;;;;11.89;41.93;100416.69;10544120;28;20043;-74
2021/05/03 12:20:20;;;;;;;2.65;1.20;;;;;;;11.17;41.93;100414.41;10524907;28;20074;-73
2021/05/03 12:25:21;;;;;;;1.48;0.80;;;;;;;11.03;42.73;100417.41;10524387;28;20071;-73
2021/05/03 12:30:26;;;;;;;1.27;0.60;;;;;;;11.13;43.54;100399.59;10524116;28;20067;-72
2021/05/03 12:35:28;;;;;;;1.48;0.90;;;;;;;11.43;42.52;100399.63;10548925;28;20085;-72
2021/05/03 12:40:35;;;;;;;2.08;0.70;;;;;;;11.67;42.70;100396.25;10585745;28;20047;-73
2021/05/03 12:46:04;;;;;;;2.25;1.08;;;;;;;11.58;43.92;100388.63;10584751;28;20043;-73
2021/05/03 13:01:36;;;;;;;11.02;1.20;;;;;;;11.97;41.37;100388.34;10584444;28;20035;-74
2021/05/03 13:24:11;;;;;;;1.75;1.13;;;;;;;12.77;40.56;100361.00;10585066;28;20036;-73
2021/05/03 13:29:09;;;;;;;2.80;1.10;;;;;;;12.81;39.59;100359.13;10583204;28;20561;-72
2021/05/03 13:34:16;;;;;;;2.63;0.93;;;;;;;12.72;40.85;100360.31;10587620;28;20509;-73
2021/05/03 13:39:17;;;;;;;2.92;1.30;;;;;;;12.83;40.26;100358.13;10591165;28;20043;-74
2021/05/03 13:44:19;;;;;;;2.30;1.90;;;;;;;13.25;39.69;100344.34;10590186;28;20066;-73
2021/05/03 13:49:20;;;;;;;2.33;1.30;;;;;;;12.99;39.97;100340.00;10591153;28;20040;-72
2021/05/03 13:54:22;;;;;;;1.55;1.10;;;;;;;12.49;41.18;100334.75;10590889;28;20057;-72
2021/05/03 13:59:23;;;;;;;1.35;1.10;;;;;;;12.70;40.57;100333.13;10571152;28;20051;-73
2021/05/03 14:04:26;;;;;;;1.95;1.38;;;;;;;12.51;41.52;100325.00;10570520;28;20036;-73
2021/05/03 14:09:28;;;;;;;1.20;1.10;;;;;;;12.67;40.42;100317.44;10588818;28;20047;-73
2021/05/03 14:14:32;;;;;;;5.63;2.00;;;;;;;12.95;39.66;100314.63;10570773;28;20418;-75
2021/05/03 14:19:38;;;;;;;2.03;1.45;;;;;;;12.87;39.27;100308.78;10570454;28;20063;-72
2021/05/03 14:24:39;;;;;;;3.00;1.40;;;;;;;12.99;40.48;100307.47;10589471;28;20036;-74
2021/05/03 14:29:45;;;;;;;1.83;1.00;;;;;;;13.10;40.01;100292.97;10589849;28;20097;-73
2021/05/03 14:34:53;;;;;;;;;;;;;;;13.01;38.49;100295.91;10588307;28;20076;-70
2021/05/03 14:39:54;;;;;;;3.67;1.35;;;;;;;12.91;40.23;100285.78;10570009;28;19919;-72
2021/05/03 14:44:56;;;;;;;3.97;1.17;;;;;;;12.97;39.72;100270.59;10586956;28;20040;-71
2021/05/03 14:55:24;;;;;;;2.33;1.50;;;;;;;12.82;39.94;100261.47;10564726;28;20451;-71
2021/05/03 15:00:27;;;;;;;2.63;1.52;;;;;;;12.49;40.98;100268.00;10587652;28;20031;-71
2021/05/03 15:05:28;;;;;;;1.70;1.58;;;;;;;12.42;40.42;100259.41;10588527;28;20035;-71
2021/05/03 15:10:31;;;;;;;1.67;1.33;;;;;;;12.57;39.86;100253.63;10569669;28;20050;-71
2021/05/03 15:15:51;;;;;;;1.23;1.13;;;;;;;12.63;40.00;100244.59;10568285;28;20510;-72
2021/05/03 15:26:17;;;;;;;1.40;1.30;;;;;;;12.84;38.26;100235.03;10586510;28;20088;-71
2021/05/03 15:36:22;;;;;;;2.35;1.15;;;;;;;12.94;38.31;100219.72;10559348;28;20051;-70
2021/05/03 15:41:24;;;;;;;1.35;1.25;;;;;;;12.70;38.27;100218.84;10545006;28;20036;-72
2021/05/03 15:46:26;;;;;;;1.98;1.40;;;;;;;13.02;37.18;100221.13;10525671;28;20416;-72
2021/05/03 15:51:27;;;;;;;1.30;1.20;;;;;;;13.02;38.08;100215.84;10526349;28;20071;-71
2021/05/03 15:56:30;;;;;;;4.53;1.30;;;;;;;13.93;37.50;100201.63;10542585;28;20054;-71
2021/05/03 16:01:33;;;;;;;1.40;1.30;;;;;;;13.46;37.74;100194.78;10543060;28;20044;-71
2021/05/03 16:06:35;;;;;;;1.40;1.27;;;;;;;12.93;36.19;100195.09;10543675;28;20051;-72
2021/05/03 16:11:39;;;;;;;1.20;1.10;;;;;;;12.83;36.73;100191.94;10508249;28;20076;-72
2021/05/03 16:16:41;;;;;;;2.05;1.02;;;;;;;12.78;36.82;100193.91;10496485;28;20048;-71
2021/05/03 16:21:43;;;;;;;1.05;1.00;;;;;;;12.63;39.00;100190.09;10524396;28;20501;-71
2021/05/03 16:26:45;;;;;;;1.42;1.13;;;;;;;12.61;38.35;100177.84;10524168;28;20093;-71
2021/05/03 16:31:46;;;;;;;1.40;1.08;;;;;;;12.30;39.59;100175.50;10541527;28;20067;-72
2021/05/03 16:36:48;;;;;;;1.15;1.05;;;;;;;12.32;39.74;100168.41;10541944;28;20036;-71
2021/05/03 16:41:50;;;;;;;1.60;1.20;;;;;;;11.94;40.74;100178.53;10541970;28;20032;-72
2021/05/03 16:46:51;;;;;;;1.90;1.40;;;;;;;12.17;40.09;100183.00;10499101;28;20044;-71
2021/05/03 16:51:52;;;;;;;1.13;1.02;;;;;;;12.35;39.22;100171.81;10499585;28;20060;-71
2021/05/03 16:56:53;;;;;;;2.05;1.30;;;;;;;12.36;39.95;100173.50;10482203;28;20049;-71
2021/05/03 17:01:55;;;;;;;1.85;1.35;;;;;;;12.46;40.61;100171.41;10536710;28;20036;-71
2021/05/03 17:06:56;;;;;;;1.50;1.20;;;;;;;12.25;41.17;100170.41;10525965;28;20039;-71
2021/05/03 17:11:57;;;;;;;1.10;1.00;;;;;;;12.16;41.13;100161.97;10544419;28;20040;-71
2021/05/03 17:16:59;;;;;;;2.22;1.00;;;;;;;12.05;40.75;100162.38;10541685;28;20381;-71
2021/05/03 17:22:01;;;;;;;1.17;0.93;;;;;;;11.69;41.18;100159.22;10506352;28;20113;-71
2021/05/03 17:27:02;;;;;;;1.30;0.90;;;;;;;11.65;41.49;100149.72;10523491;28;20036;-71
2021/05/03 17:32:04;;;;;;;1.55;1.00;;;;;;;11.80;41.41;100157.06;10561456;22;20044;-72
2021/05/03 17:37:06;;;;;;;1.10;0.80;;;;;;;11.54;42.09;100148.28;10451180;28;20068;-71
2021/05/03 17:42:08;;;;;;;13.10;11.63;;;;;;;11.80;42.17;100133.38;10441196;28;20043;-73
2021/05/03 17:47:10;;;;;;;1.80;0.93;;;;;;;11.56;42.07;100143.84;10429346;28;20087;-73
2021/05/03 17:52:16;;;;;;;2.10;1.00;;;;;;;11.58;42.49;100139.38;10427994;28;20045;-74
2021/05/03 17:57:18;;;;;;;2.15;1.95;;;;;;;11.50;42.51;100136.13;10430129;28;20109;-72
2021/05/03 18:02:20;;;;;;;1.80;1.42;;;;;;;11.14;43.78;100137.34;10415036;28;20041;-72
2021/05/03 18:07:22;;;;;;;3.38;1.77;;;;;;;10.68;46.08;100137.03;10433965;28;20065;-73
2021/05/03 18:12:24;;;;;;;1.95;1.20;;;;;;;10.52;45.71;100138.41;10465673;28;20037;-73
2021/05/03 18:17:26;;;;;;;1.98;1.30;;;;;;;10.55;46.32;100138.31;10459743;28;20041;-72
2021/05/03 18:22:28;;;;;;;1.80;1.50;;;;;;;10.59;46.36;100132.06;10456770;28;20064;-72
2021/05/03 18:27:29;;;;;;;1.83;1.70;;;;;;;10.28;47.28;100134.75;10456727;28;20052;-73
2021/05/03 18:32:31;;;;;;;2.72;1.60;;;;;;;10.39;47.53;100130.00;10452370;28;20052;-72
2021/05/03 18:37:32;;;;;;;1.48;1.23;;;;;;;10.11;47.87;100129.94;10450307;28;20098;-72
2021/05/03 18:42:34;;;;;;;3.00;1.63;;;;;;;9.88;48.41;100130.56;10471870;28;20041;-72
2021/05/03 18:47:35;;;;;;;1.77;1.38;;;;;;;9.66;49.34;100134.69;10454604;28;20405;-72
2021/05/03 18:52:37;;;;;;;1.83;1.40;;;;;;;9.50;49.22;100132.44;10471708;28;20414;-73
2021/05/03 18:57:38;;;;;;;1.83;1.63;;;;;;;9.78;48.22;100124.72;10469495;28;20059;-73
2021/05/03 19:02:40;;;;;;;2.58;1.80;;;;;;;9.75;48.83;100127.41;10452980;28;20434;-72
2021/05/03 19:07:44;;;;;;;3.17;2.00;;;;;;;9.70;48.89;100123.19;10473528;28;20090;-73
2021/05/03 19:12:46;;;;;;;1.83;1.70;;;;;;;9.74;49.11;100119.56;10458511;28;20091;-71
2021/05/03 19:17:48;;;;;;;2.72;2.20;;;;;;;9.80;49.62;100115.03;10438908;28;20053;-73
2021/05/03 19:22:49;;;;;;;4.30;2.50;;;;;;;9.65;49.36;100109.31;10471810;28;20379;-72
2021/05/03 19:27:56;;;;;;;4.10;2.53;;;;;;;9.60;49.71;100105.03;10450775;28;20559;-74
2021/05/03 19:32:57;;;;;;;3.05;2.58;;;;;;;9.69;49.41;100103.09;10436145;28;20069;-72
2021/05/03 19:38:00;;;;;;;3.22;2.40;;;;;;;9.55;49.56;100093.81;10468137;28;20128;-71
2021/05/03 19:43:01;;;;;;;2.85;2.17;;;;;;;9.44;50.17;100093.25;10454310;28;20037;-72
2021/05/03 19:48:03;;;;;;;3.17;2.40;;;;;;;9.36;49.64;100089.97;10471980;28;20044;-72
2021/05/03 19:53:20;;;;;;;2.83;2.00;;;;;;;9.24;50.30;100085.88;10435818;28;20048;-72
2021/05/03 20:03:52;;;;;;;2.50;1.67;;;;;;;9.07;49.78;100074.94;10452292;28;20041;-73
2021/05/03 20:09:01;;;;;;;2.03;1.67;;;;;;;9.04;50.65;100075.06;10470133;28;20056;-73
2021/05/03 20:14:05;;;;;;;1.92;1.50;;;;;;;8.91;50.84;100068.38;10467416;28;20061;-73
2021/05/03 20:19:07;;;;;;;4.32;2.10;;;;;;;8.85;51.31;100079.84;10466778;28;20045;-73
2021/05/03 20:24:09;;;;;;;2.30;2.10;;;;;;;8.71;51.85;100076.72;10470640;28;20049;-72
2021/05/03 20:29:10;;;;;;;3.10;2.53;;;;;;;8.76;51.72;100073.06;10468511;28;20055;-73
2021/05/03 20:39:30;;;;;;;2.65;1.67;;;;;;;8.61;52.03;100067.34;10467491;28;20112;-72
2021/05/03 20:44:31;;;;;;;2.92;1.70;;;;;;;8.55;52.68;100061.34;10452341;28;20041;-72
2021/05/03 20:49:33;;;;;;;2.63;2.20;;;;;;;8.43;52.10;100056.41;10454938;28;20049;-72
2021/05/03 20:54:34;;;;;;;2.65;2.20;;;;;;;8.44;52.00;100054.63;10458817;28;20110;-72
2021/05/03 20:59:35;;;;;;;4.20;2.17;;;;;;;8.44;51.90;100045.00;10456302;28;20045;-72
2021/05/03 21:04:37;;;;;;;2.50;1.88;;;;;;;8.46;51.26;100040.63;10470409;28;20037;-72
2021/05/03 21:09:38;;;;;;;7.28;2.10;;;;;;;8.59;50.66;100030.72;10470973;28;20110;-71
2021/05/03 21:14:39;;;;;;;5.85;1.65;;;;;;;8.43;50.95;100035.44;10471584;28;20494;-73
2021/05/03 21:19:41;;;;;;;5.25;2.10;;;;;;;8.58;51.38;100023.72;10471192;28;20374;-71
2021/05/03 21:24:42;;;;;;;2.28;1.50;;;;;;;8.47;51.13;100018.75;10472628;28;20037;-73
2021/05/03 21:29:48;;;;;;;3.15;2.05;;;;;;;8.43;52.10;100014.47;10470610;28;20368;-73
2021/05/03 21:34:49;;;;;;;2.70;1.88;;;;;;;8.40;51.56;100013.69;10449323;28;20057;-72
2021/05/03 21:39:51;;;;;;;3.63;1.85;;;;;;;8.35;50.79;100009.38;10468908;28;20115;-72
2021/05/03 21:44:52;;;;;;;2.95;1.83;;;;;;;8.42;51.17;99998.81;10467039;28;20482;-72
2021/05/03 21:49:53;;;;;;;3.20;2.30;;;;;;;8.32;51.22;99999.00;10469766;28;20556;-71
2021/05/03 21:54:54;;;;;;;4.70;1.80;;;;;;;8.23;51.31;99993.94;10464864;28;20040;-69
2021/05/03 21:59:56;;;;;;;2.53;1.73;;;;;;;8.37;50.71;99977.06;10463830;28;20103;-69
2021/05/03 22:04:57;;;;;;;2.78;2.00;;;;;;;8.40;50.56;99974.41;10446193;28;20099;-69
2021/05/03 22:09:58;;;;;;;2.22;1.95;;;;;;;8.35;50.79;99971.84;10446443;28;20053;-68
2021/05/03 22:15:01;;;;;;;2.92;1.77;;;;;;;8.37;50.42;99971.84;10464528;28;20037;-69
2021/05/03 22:25:24;;;;;;;2.28;1.63;;;;;;;8.41;49.76;99961.28;10463957;28;20454;-68
2021/05/03 22:30:25;;;;;;;3.83;1.63;;;;;;;8.42;49.93;99954.28;10464109;28;20045;-68
2021/05/03 22:35:26;;;;;;;3.50;1.80;;;;;;;8.39;49.60;99957.81;10464443;28;20068;-70
2021/05/03 22:46:39;;;;;;;3.17;1.77;;;;;;;8.28;49.48;99946.72;10463574;28;20041;-68
2021/05/03 23:18:04;;;;;;;2.42;2.22;;;;;;;8.11;49.25;99913.09;10464080;28;20041;-69
2021/05/03 23:23:05;;;;;;;2.20;2.00;;;;;;;8.12;49.39;99899.09;10443181;28;20040;-68
2021/05/03 23:28:07;;;;;;;2.95;2.70;;;;;;;8.01;49.49;99891.50;10462123;28;20104;-69
2021/05/03 23:33:08;;;;;;;2.85;2.45;;;;;;;7.91;49.91;99887.34;10474341;22;20103;-73
2021/05/03 23:38:09;;;;;;;5.65;2.58;;;;;;;7.92;49.48;99875.13;10503249;28;20044;-72
2021/05/03 23:43:10;;;;;;;4.35;2.30;;;;;;;7.95;49.32;99859.34;10502810;28;20049;-73
2021/05/03 23:48:12;;;;;;;3.05;2.40;;;;;;;7.80;50.04;99844.91;10502532;28;20155;-72
2021/05/03 23:53:13;;;;;;;3.80;2.63;;;;;;;7.90;48.95;99845.53;10502867;28;20044;-73
2021/05/03 23:58:14;;;;;;;5.97;2.90;;;;;;;7.92;48.67;99830.63;10503413;28;20378;-74
